Whitehall, Michigan
Current Conditions -  °F | °C
As of 4:55 AM on Tuesday 21 Oct 2014 (Local Time) from KMKG Reporting Station
Overcast Overcast  
Wind Chill: 42°   Ceiling: 6000
Heat Index: 47°   Visibility: 10mi
Dew Point: 42°   Wind: 10mph
Humidity: 83%   Direction: 340°NNW
Pressure: 30"   Gusts: NA
Location:  43.41°N, 86.35°W
Report Text: KMKG 210855Z AUTO 34009KT 10SM FEW025 OVC060 08/06 A3000 RMK AO2 SLP161 T00830056 53004
Loading
Personal Weather Stations






























Interactive Weather Map
Tropical Storm Tracking
New forecast layout! Learn more

10-Day Weather Forecast

Advertisements
Track Severe Weather on mobile